createdAt,value
2018-06-11T00:02:09.930Z,22.80
2018-06-11T00:04:38.699Z,22.80
2018-06-11T00:07:07.716Z,22.80
2018-06-11T00:09:36.434Z,22.80
2018-06-11T00:14:33.610Z,22.60
2018-06-11T00:17:02.672Z,22.50
2018-06-11T00:19:31.341Z,22.50
2018-06-11T00:22:00.133Z,22.50
2018-06-11T00:24:28.885Z,22.60
2018-06-11T00:26:57.662Z,22.70
2018-06-11T00:29:26.243Z,22.70
2018-06-11T00:31:55.167Z,22.60
2018-06-11T00:34:23.894Z,22.60
2018-06-11T00:36:52.819Z,22.40
2018-06-11T00:39:21.916Z,22.50
2018-06-11T00:41:50.721Z,23.00
2018-06-11T00:46:47.549Z,22.10
2018-06-11T00:49:16.148Z,21.90
2018-06-11T00:51:44.981Z,21.80
2018-06-11T00:54:13.592Z,21.80
2018-06-11T00:56:42.409Z,21.70
2018-06-11T00:59:11.168Z,21.80
2018-06-11T01:01:39.931Z,21.90
2018-06-11T01:04:08.750Z,21.90
2018-06-11T01:06:37.417Z,22.00
2018-06-11T01:09:07.431Z,22.00
2018-06-11T01:14:04.520Z,22.40
2018-06-11T01:16:33.382Z,21.80
2018-06-11T01:19:02.085Z,21.60
2018-06-11T01:21:30.862Z,21.60
2018-06-11T01:23:59.621Z,21.50
2018-06-11T01:26:28.337Z,21.50
2018-06-11T01:28:56.889Z,21.40
2018-06-11T01:31:25.536Z,21.40
2018-06-11T01:33:54.095Z,21.30
2018-06-11T01:36:22.979Z,21.20
2018-06-11T01:41:20.011Z,21.20
2018-06-11T01:46:17.002Z,20.70
2018-06-11T01:48:45.748Z,20.90
2018-06-11T01:51:14.513Z,21.00
2018-06-11T01:53:43.118Z,21.20
2018-06-11T01:56:12.283Z,21.20
2018-06-11T01:58:41.271Z,21.20
2018-06-11T02:06:06.927Z,21.20
2018-06-11T02:08:35.709Z,21.20
2018-06-11T02:11:04.395Z,21.10
2018-06-11T02:16:01.636Z,21.10
2018-06-11T02:18:30.306Z,20.90
2018-06-11T02:20:59.198Z,20.80
2018-06-11T02:23:28.514Z,20.80
2018-06-11T02:25:57.199Z,20.80
2018-06-11T02:28:25.928Z,20.80
2018-06-11T02:30:54.742Z,20.90
2018-06-11T02:33:23.459Z,20.80
2018-06-11T02:35:52.275Z,20.90
2018-06-11T02:38:21.088Z,20.90
2018-06-11T02:40:49.739Z,19.30
2018-06-11T02:43:18.399Z,20.80
2018-06-11T02:45:47.222Z,20.80
2018-06-11T02:48:16.009Z,20.80
2018-06-11T02:50:45.071Z,20.80
2018-06-11T02:55:42.474Z,20.70
2018-06-11T02:58:11.080Z,22.40
2018-06-11T03:00:39.856Z,20.70
2018-06-11T03:03:08.746Z,20.70
2018-06-11T03:05:37.674Z,20.70
2018-06-11T03:08:06.522Z,20.70
2018-06-11T03:10:35.375Z,20.70
2018-06-11T03:15:32.525Z,20.70
2018-06-11T03:18:01.134Z,20.70
2018-06-11T03:20:29.887Z,20.70
2018-06-11T03:22:58.501Z,20.80
2018-06-11T03:25:27.277Z,21.00
2018-06-11T03:30:24.440Z,20.70
2018-06-11T03:32:53.025Z,20.70
2018-06-11T03:35:21.938Z,20.70
2018-06-11T03:37:50.708Z,19.60
2018-06-11T03:40:20.032Z,20.60
2018-06-11T03:42:48.819Z,20.60
2018-06-11T03:45:17.588Z,20.60
2018-06-11T03:50:14.853Z,20.60
2018-06-11T03:52:43.665Z,20.60
2018-06-11T03:55:12.414Z,20.60
2018-06-11T03:57:41.230Z,20.60
2018-06-11T04:00:10.067Z,20.60
2018-06-11T04:02:43.670Z,20.60
2018-06-11T04:07:41.492Z,20.70
2018-06-11T04:10:10.312Z,20.70
2018-06-11T04:12:39.006Z,20.60
2018-06-11T04:15:07.716Z,20.60
2018-06-11T04:17:36.526Z,20.60
2018-06-11T04:20:05.369Z,20.80
2018-06-11T04:22:34.088Z,20.90
2018-06-11T04:25:02.964Z,21.00
2018-06-11T04:27:31.794Z,21.00
2018-06-11T04:30:00.434Z,21.10
2018-06-11T04:32:29.179Z,21.10
2018-06-11T04:34:57.862Z,21.10
2018-06-11T04:37:26.792Z,21.00
2018-06-11T04:39:55.586Z,21.00
2018-06-11T04:42:24.488Z,21.00
2018-06-11T04:44:53.104Z,21.10
2018-06-11T04:47:21.798Z,21.10
2018-06-11T04:49:50.678Z,21.70
2018-06-11T04:52:19.452Z,21.30
2018-06-11T04:54:48.333Z,21.40
2018-06-11T04:57:17.268Z,21.50
2018-06-11T04:59:45.950Z,21.50
2018-06-11T05:02:14.601Z,21.50
2018-06-11T05:04:43.210Z,21.40
2018-06-11T05:12:08.916Z,21.50
2018-06-11T05:14:37.637Z,21.00
2018-06-11T05:17:06.721Z,21.50
2018-06-11T05:19:36.872Z,19.90
2018-06-11T05:22:05.771Z,21.50
2018-06-11T05:24:34.541Z,21.60
2018-06-11T05:27:03.370Z,21.60
2018-06-11T05:29:32.206Z,21.70
2018-06-11T05:32:00.957Z,21.80
2018-06-11T05:34:29.822Z,20.70
2018-06-11T05:39:27.425Z,22.00
2018-06-11T05:41:56.159Z,22.10
2018-06-11T05:46:53.266Z,22.20
2018-06-11T05:49:22.060Z,22.20
2018-06-11T05:51:50.637Z,22.30
2018-06-11T05:54:20.037Z,22.30
2018-06-11T05:59:16.933Z,22.40
2018-06-11T06:01:45.593Z,22.50
2018-06-11T06:04:14.378Z,22.60
2018-06-11T06:11:39.826Z,23.00
2018-06-11T06:14:08.514Z,23.10
2018-06-11T06:16:37.205Z,23.20
2018-06-11T06:19:05.867Z,23.20
2018-06-11T06:21:34.698Z,23.30
2018-06-11T06:24:05.064Z,22.20
2018-06-11T06:26:33.947Z,23.40
2018-06-11T06:29:02.883Z,23.40
2018-06-11T06:31:31.533Z,23.30
2018-06-11T06:34:00.394Z,23.30
2018-06-11T06:38:57.539Z,22.60
2018-06-11T06:41:26.547Z,23.30
2018-06-11T06:46:23.981Z,25.30
2018-06-11T06:48:53.404Z,23.90
2018-06-11T06:56:25.076Z,23.90
2018-06-11T06:58:54.249Z,23.80
2018-06-11T07:01:30.068Z,24.00
2018-06-11T07:04:01.188Z,24.20
2018-06-11T07:06:29.938Z,24.20
2018-06-11T07:08:58.697Z,24.50
2018-06-11T07:11:28.104Z,24.50
2018-06-11T07:16:25.304Z,24.50
2018-06-11T07:21:22.460Z,24.60
2018-06-11T07:23:51.734Z,24.70
2018-06-11T07:26:20.613Z,24.70
2018-06-11T07:28:54.776Z,24.80
2018-06-11T07:33:51.897Z,24.80
2018-06-11T07:36:20.581Z,24.60
2018-06-11T07:38:49.262Z,24.80
2018-06-11T07:41:18.680Z,24.80
2018-06-11T07:43:48.269Z,24.80
2018-06-11T07:46:17.669Z,24.30
2018-06-11T07:48:46.744Z,24.90
2018-06-11T07:51:18.876Z,25.20
2018-06-11T07:53:48.486Z,25.50
2018-06-11T07:56:17.438Z,25.70
2018-06-11T07:58:48.991Z,25.70
2018-06-11T08:01:39.755Z,25.70
2018-06-11T08:04:09.228Z,25.80
2018-06-11T08:06:37.970Z,25.90
2018-06-11T08:09:08.386Z,26.00
2018-06-11T08:11:37.323Z,26.00
2018-06-11T08:14:06.987Z,26.00
2018-06-11T08:19:04.311Z,24.90
2018-06-11T08:21:33.640Z,26.40
2018-06-11T08:24:02.527Z,26.50
2018-06-11T08:26:31.523Z,26.60
2018-06-11T08:29:00.451Z,26.60
2018-06-11T08:31:29.213Z,26.60
2018-06-11T08:33:58.459Z,26.80
2018-06-11T08:36:27.512Z,26.90
2018-06-11T08:41:24.887Z,27.30
2018-06-11T08:43:53.588Z,27.20
2018-06-11T08:46:22.354Z,28.40
2018-06-11T08:48:51.022Z,27.10
2018-06-11T08:51:23.337Z,27.30
2018-06-11T08:53:52.219Z,27.40
2018-06-11T08:56:21.237Z,27.40
2018-06-11T08:58:49.983Z,27.60
2018-06-11T09:01:19.590Z,27.80
2018-06-11T09:03:48.392Z,27.90
2018-06-11T09:06:17.347Z,27.90
2018-06-11T09:08:46.270Z,28.00
2018-06-11T09:11:15.155Z,28.10
2018-06-11T09:13:44.280Z,28.20
2018-06-11T09:16:16.245Z,28.40
2018-06-11T09:19:13.243Z,28.50
2018-06-11T09:21:43.732Z,28.80
2018-06-11T09:24:22.286Z,28.80
2018-06-11T09:26:57.357Z,28.80
2018-06-11T09:29:34.777Z,28.90
2018-06-11T09:32:06.324Z,28.80
2018-06-11T09:34:35.231Z,28.00
2018-06-11T09:37:04.031Z,28.70
2018-06-11T09:39:34.049Z,28.10
2018-06-11T09:42:08.700Z,28.30
2018-06-11T09:44:48.327Z,28.70
2018-06-11T09:47:17.680Z,29.10
2018-06-11T09:49:47.002Z,29.70
2018-06-11T09:52:16.153Z,29.70
2018-06-11T09:54:44.847Z,29.80
2018-06-11T09:57:15.589Z,30.00
2018-06-11T09:59:44.456Z,29.90
2018-06-11T10:02:17.822Z,29.80
2018-06-11T10:04:56.621Z,29.80
2018-06-11T10:07:25.553Z,29.90
2018-06-11T10:12:22.814Z,30.30
2018-06-11T10:14:51.615Z,30.30
2018-06-11T10:17:20.340Z,30.40
2018-06-11T10:19:49.307Z,30.50
2018-06-11T10:22:20.882Z,31.10
2018-06-11T10:24:53.673Z,31.10
2018-06-11T10:27:22.558Z,31.10
2018-06-11T10:29:51.655Z,31.00
2018-06-11T10:32:20.761Z,30.90
2018-06-11T10:34:50.683Z,30.90
2018-06-11T10:37:19.516Z,30.80
2018-06-11T10:39:48.347Z,31.00
2018-06-11T10:42:17.758Z,31.20
2018-06-11T10:44:46.936Z,32.40
2018-06-11T10:47:18.159Z,33.10
2018-06-11T10:49:53.309Z,33.70
2018-06-11T10:52:22.393Z,34.00
2018-06-11T10:54:51.912Z,34.40
2018-06-11T11:03:00.650Z,35.70
2018-06-11T11:05:30.737Z,36.10
2018-06-11T11:07:59.435Z,35.50
2018-06-11T11:10:28.270Z,35.00
2018-06-11T11:12:56.958Z,35.30
2018-06-11T11:15:25.836Z,35.40
2018-06-11T11:17:54.577Z,35.80
2018-06-11T11:20:23.543Z,35.70
2018-06-11T11:22:52.448Z,35.50
2018-06-11T11:25:21.564Z,35.50
2018-06-11T11:27:50.532Z,36.00
2018-06-11T11:30:19.459Z,36.20
2018-06-11T11:32:48.260Z,36.30
2018-06-11T11:35:17.096Z,36.50
2018-06-11T11:37:45.852Z,36.90
2018-06-11T11:40:14.649Z,36.60
2018-06-11T11:42:44.394Z,37.00
2018-06-11T11:45:14.691Z,36.60
2018-06-11T11:47:44.219Z,35.90
2018-06-11T11:50:13.204Z,36.50
2018-06-11T11:52:42.043Z,35.30
2018-06-11T11:55:10.895Z,35.20
2018-06-11T11:57:39.809Z,36.00
2018-06-11T12:00:08.899Z,36.20
2018-06-11T12:02:44.311Z,36.60
2018-06-11T12:05:21.225Z,37.00
2018-06-11T12:07:51.255Z,37.40
2018-06-11T12:10:21.652Z,37.80
2018-06-11T12:12:50.666Z,37.60
2018-06-11T12:15:19.579Z,37.90
2018-06-11T12:17:48.648Z,37.90
2018-06-11T12:20:17.344Z,38.20
2018-06-11T12:22:46.390Z,37.20
2018-06-11T12:25:15.159Z,38.10
2018-06-11T12:27:43.990Z,38.30
2018-06-11T12:30:12.793Z,38.30
2018-06-11T12:32:41.475Z,38.40
2018-06-11T12:35:10.271Z,37.10
2018-06-11T12:37:39.040Z,38.50
2018-06-11T12:40:07.750Z,39.00
2018-06-11T12:42:36.957Z,39.30
2018-06-11T12:45:15.226Z,38.50
2018-06-11T12:47:58.858Z,38.80
2018-06-11T12:50:48.015Z,36.40
2018-06-11T12:53:19.988Z,37.60
2018-06-11T12:55:58.061Z,38.40
2018-06-11T12:58:55.148Z,38.10
2018-06-11T13:01:35.617Z,37.90
2018-06-11T13:04:08.149Z,38.10
2018-06-11T13:06:44.260Z,38.40
2018-06-11T13:09:13.555Z,39.70
2018-06-11T13:11:43.675Z,40.10
2018-06-11T13:14:12.513Z,39.90
2018-06-11T13:16:41.990Z,39.00
2018-06-11T13:19:10.964Z,38.20
2018-06-11T13:21:43.098Z,38.10
2018-06-11T13:24:18.487Z,38.10
2018-06-11T13:26:47.467Z,37.40
2018-06-11T13:29:17.079Z,38.20
2018-06-11T13:34:15.005Z,38.60
2018-06-11T13:36:44.032Z,38.60
2018-06-11T13:39:12.769Z,38.80
2018-06-11T13:41:52.027Z,39.00
2018-06-11T13:44:27.726Z,39.20
2018-06-11T13:47:05.599Z,39.80
2018-06-11T13:49:34.485Z,40.20
2018-06-11T13:52:03.383Z,40.10
2018-06-11T13:54:32.084Z,40.20
2018-06-11T13:57:00.941Z,40.30
2018-06-11T13:59:29.954Z,40.30
2018-06-11T14:01:58.794Z,40.30
2018-06-11T14:04:27.593Z,40.50
2018-06-11T14:06:56.439Z,40.10
2018-06-11T14:09:25.329Z,39.60
2018-06-11T14:11:54.027Z,39.50
2018-06-11T14:14:23.419Z,39.60
2018-06-11T14:16:52.580Z,40.00
2018-06-11T14:19:21.426Z,40.40
2018-06-11T14:21:50.316Z,40.60
2018-06-11T14:24:19.373Z,40.60
2018-06-11T14:26:48.269Z,40.80
2018-06-11T14:29:17.275Z,40.80
2018-06-11T14:31:46.091Z,40.80
2018-06-11T14:34:15.515Z,40.50
2018-06-11T14:39:19.954Z,39.90
2018-06-11T14:41:48.599Z,39.80
2018-06-11T14:44:17.366Z,39.20
2018-06-11T14:46:46.619Z,39.00
2018-06-11T14:49:15.366Z,41.00
2018-06-11T14:51:44.617Z,41.70
2018-06-11T14:56:41.875Z,41.30
2018-06-11T14:59:10.690Z,40.70
2018-06-11T15:01:39.456Z,41.30
2018-06-11T15:04:08.285Z,41.40
2018-06-11T15:06:36.999Z,39.40
2018-06-11T15:11:35.246Z,37.50
2018-06-11T15:14:04.087Z,38.70
2018-06-11T15:19:06.748Z,38.30
2018-06-11T15:21:35.524Z,38.60
2018-06-11T15:24:04.375Z,39.60
2018-06-11T15:26:33.034Z,39.40
2018-06-11T15:29:01.880Z,40.40
2018-06-11T15:31:30.605Z,37.00
2018-06-11T15:33:59.409Z,37.20
2018-06-11T15:36:28.375Z,36.70
2018-06-11T15:38:57.108Z,37.10
2018-06-11T15:41:26.299Z,37.50
2018-06-11T15:43:55.097Z,37.30
2018-06-11T15:46:23.799Z,37.60
2018-06-11T15:48:52.578Z,37.10
2018-06-11T15:51:21.320Z,36.00
2018-06-11T15:53:50.474Z,36.00
2018-06-11T15:56:19.238Z,34.80
2018-06-11T15:58:48.089Z,34.80
2018-06-11T16:03:45.305Z,34.10
2018-06-11T16:06:14.003Z,33.90
2018-06-11T16:08:42.906Z,33.90
2018-06-11T16:11:11.588Z,33.70
2018-06-11T16:13:40.246Z,33.70
2018-06-11T16:18:37.553Z,33.90
2018-06-11T16:21:06.310Z,33.90
2018-06-11T16:23:35.061Z,33.80
2018-06-11T16:26:03.749Z,33.90
2018-06-11T16:28:32.498Z,33.70
2018-06-11T16:31:01.196Z,33.40
2018-06-11T16:33:30.043Z,33.30
2018-06-11T16:35:58.767Z,33.50
2018-06-11T16:38:27.584Z,33.40
2018-06-11T16:43:26.286Z,33.30
2018-06-11T16:45:55.082Z,33.30
2018-06-11T16:48:23.804Z,33.30
2018-06-11T16:53:23.319Z,33.50
2018-06-11T16:55:52.319Z,33.70
2018-06-11T17:00:49.543Z,33.70
2018-06-11T17:03:18.307Z,33.70
2018-06-11T17:05:47.056Z,33.50
2018-06-11T17:08:15.778Z,33.10
2018-06-11T17:13:13.396Z,33.30
2018-06-11T17:15:42.617Z,33.30
2018-06-11T17:18:11.304Z,33.10
2018-06-11T17:20:40.091Z,31.90
2018-06-11T17:23:08.941Z,31.30
2018-06-11T17:25:44.675Z,31.50
2018-06-11T17:28:18.489Z,31.10
2018-06-11T17:30:47.242Z,31.30
2018-06-11T17:33:15.977Z,31.10
2018-06-11T17:35:44.976Z,30.90
2018-06-11T17:38:14.032Z,30.40
2018-06-11T17:40:42.771Z,30.30
2018-06-11T17:48:08.925Z,29.90
2018-06-11T17:50:38.782Z,29.90
2018-06-11T17:53:08.083Z,30.00
2018-06-11T17:55:37.098Z,29.90
2018-06-11T17:58:05.825Z,30.00
2018-06-11T18:00:34.772Z,30.20
2018-06-11T18:03:03.468Z,30.20
2018-06-11T18:05:32.404Z,30.10
2018-06-11T18:12:57.804Z,30.30
2018-06-11T18:15:26.596Z,29.80
2018-06-11T18:17:55.554Z,30.60
2018-06-11T18:20:24.412Z,30.40
2018-06-11T18:22:53.306Z,30.40
2018-06-11T18:25:22.182Z,30.10
2018-06-11T18:27:51.004Z,29.90
2018-06-11T18:30:19.666Z,29.90
2018-06-11T18:32:48.276Z,29.80
2018-06-11T18:35:17.118Z,29.70
2018-06-11T18:37:45.799Z,29.60
2018-06-11T18:40:14.607Z,29.50
2018-06-11T18:42:43.320Z,29.10
2018-06-11T18:45:12.069Z,29.10
2018-06-11T18:47:40.774Z,29.20
2018-06-11T18:50:09.580Z,29.10
2018-06-11T18:55:06.827Z,29.20
2018-06-11T18:57:35.532Z,29.30
2018-06-11T19:00:04.837Z,29.30
2018-06-11T19:02:33.504Z,29.40
2018-06-11T19:05:02.170Z,29.40
2018-06-11T19:07:31.072Z,29.30
2018-06-11T19:10:00.732Z,29.30
2018-06-11T19:12:29.443Z,29.40
2018-06-11T19:14:58.216Z,29.30
2018-06-11T19:17:26.967Z,29.20
2018-06-11T19:19:55.587Z,28.80
2018-06-11T19:22:24.205Z,28.70
2018-06-11T19:24:53.087Z,28.70
2018-06-11T19:27:30.608Z,28.50
2018-06-11T19:30:06.918Z,28.50
2018-06-11T19:32:35.920Z,28.60
2018-06-11T19:35:04.887Z,28.70
2018-06-11T19:37:33.515Z,28.80
2018-06-11T19:40:02.271Z,28.80
2018-06-11T19:42:31.050Z,28.90
2018-06-11T19:44:59.918Z,28.90
2018-06-11T19:47:28.634Z,28.80
2018-06-11T19:49:57.407Z,28.70
2018-06-11T19:52:26.252Z,28.70
2018-06-11T19:54:55.166Z,28.60
2018-06-11T19:57:23.879Z,28.50
2018-06-11T19:59:52.921Z,28.50
2018-06-11T20:04:49.989Z,28.40
2018-06-11T20:09:47.246Z,28.30
2018-06-11T20:12:16.051Z,25.60
2018-06-11T20:14:44.764Z,25.20
2018-06-11T20:19:43.688Z,23.20
2018-06-11T20:22:12.493Z,23.20
2018-06-11T20:24:41.307Z,23.20
2018-06-11T20:27:10.134Z,23.20
2018-06-11T20:29:39.080Z,23.40
2018-06-11T20:32:07.803Z,23.50
2018-06-11T20:34:36.498Z,23.60
2018-06-11T20:37:05.343Z,23.70
2018-06-11T20:39:34.395Z,23.60
2018-06-11T20:42:03.151Z,23.50
2018-06-11T20:44:31.879Z,23.60
2018-06-11T20:47:00.683Z,23.70
2018-06-11T20:49:29.410Z,23.70
2018-06-11T20:51:58.390Z,23.90
2018-06-11T20:54:27.241Z,23.90
2018-06-11T20:56:56.065Z,24.00
2018-06-11T20:59:24.935Z,23.90
2018-06-11T21:01:53.626Z,23.80
2018-06-11T21:04:22.326Z,23.80
2018-06-11T21:06:51.343Z,23.80
2018-06-11T21:09:20.320Z,23.80
2018-06-11T21:11:49.122Z,23.80
2018-06-11T21:14:17.860Z,23.70
2018-06-11T21:16:46.646Z,23.60
2018-06-11T21:19:15.412Z,23.70
2018-06-11T21:21:44.230Z,23.00
2018-06-11T21:24:12.907Z,23.70
2018-06-11T21:26:41.630Z,23.80
2018-06-11T21:29:10.382Z,23.80
2018-06-11T21:31:39.176Z,23.40
2018-06-11T21:36:36.401Z,22.60
2018-06-11T21:39:07.894Z,22.50
2018-06-11T21:41:36.702Z,22.40
2018-06-11T21:44:05.523Z,22.30
2018-06-11T21:46:34.283Z,21.70
2018-06-11T21:49:03.124Z,21.60
2018-06-11T21:51:31.838Z,21.60
2018-06-11T21:54:00.636Z,21.30
2018-06-11T21:56:29.333Z,21.10
2018-06-11T21:58:58.257Z,20.90
2018-06-11T22:01:26.847Z,20.90
2018-06-11T22:03:56.001Z,20.90
2018-06-11T22:06:24.580Z,20.80
2018-06-11T22:08:53.142Z,20.90
2018-06-11T22:11:21.910Z,21.00
2018-06-11T22:13:50.537Z,21.20
2018-06-11T22:16:19.304Z,21.40
2018-06-11T22:21:16.379Z,21.80
2018-06-11T22:26:13.516Z,22.00
2018-06-11T22:28:42.244Z,22.10
2018-06-11T22:31:11.002Z,22.20
2018-06-11T22:33:39.739Z,22.20
2018-06-11T22:36:08.495Z,22.20
2018-06-11T22:38:37.109Z,22.10
2018-06-11T22:41:05.860Z,22.10
2018-06-11T22:43:34.851Z,22.00
2018-06-11T22:46:03.781Z,21.80
2018-06-11T22:48:32.428Z,21.60
2018-06-11T22:51:01.110Z,21.50
2018-06-11T22:53:29.929Z,21.40
2018-06-11T22:55:58.569Z,21.40
2018-06-11T22:58:27.278Z,21.40
2018-06-11T23:00:55.991Z,21.50
2018-06-11T23:03:24.879Z,21.50
2018-06-11T23:05:53.589Z,21.60
2018-06-11T23:10:51.002Z,21.80
2018-06-11T23:13:19.689Z,21.90
2018-06-11T23:15:48.527Z,21.90
2018-06-11T23:20:45.732Z,21.90
2018-06-11T23:23:14.502Z,21.90
2018-06-11T23:25:43.226Z,21.70
2018-06-11T23:28:11.994Z,21.50
2018-06-11T23:33:13.564Z,21.40
2018-06-11T23:35:42.446Z,21.50
2018-06-11T23:40:39.441Z,21.40
2018-06-11T23:43:07.954Z,21.50
2018-06-11T23:45:36.664Z,21.40
2018-06-11T23:48:05.416Z,21.40
2018-06-11T23:50:34.146Z,21.40
2018-06-11T23:57:59.509Z,21.30
